createdAt,value
2022-10-05T00:01:52.555Z,0.65
2022-10-05T00:04:24.176Z,0.50
2022-10-05T00:07:02.761Z,0.75
2022-10-05T00:09:32.296Z,0.50
2022-10-05T00:11:59.216Z,0.52
2022-10-05T00:14:32.297Z,2.78
2022-10-05T00:17:01.034Z,0.73
2022-10-05T00:19:33.241Z,0.80
2022-10-05T00:22:10.422Z,0.60
2022-10-05T00:24:37.265Z,0.57
2022-10-05T00:27:22.327Z,0.45
2022-10-05T00:29:51.274Z,0.60
2022-10-05T00:32:18.460Z,0.60
2022-10-05T00:34:46.103Z,0.73
2022-10-05T00:37:14.320Z,0.50
2022-10-05T00:39:42.287Z,0.40
2022-10-05T00:42:18.295Z,0.60
2022-10-05T00:44:50.692Z,0.80
2022-10-05T00:47:38.976Z,1.65
2022-10-05T00:50:08.703Z,1.23
2022-10-05T00:52:41.716Z,1.00
2022-10-05T00:55:11.420Z,1.17
2022-10-05T00:57:43.517Z,0.80
2022-10-05T01:00:15.935Z,0.70
2022-10-05T01:02:52.909Z,0.70
2022-10-05T01:05:32.062Z,0.77
2022-10-05T01:08:37.792Z,1.15
2022-10-05T01:11:27.905Z,1.10
2022-10-05T01:14:08.542Z,1.15
2022-10-05T01:16:55.642Z,0.85
2022-10-05T01:19:47.512Z,0.60
2022-10-05T01:22:46.714Z,0.73
2022-10-05T01:25:30.924Z,1.17
2022-10-05T01:28:04.085Z,0.85
2022-10-05T01:30:39.836Z,0.82
2022-10-05T01:33:23.848Z,0.70
2022-10-05T01:36:02.525Z,0.50
2022-10-05T01:38:52.587Z,0.60
2022-10-05T01:41:31.294Z,0.57
2022-10-05T01:44:07.023Z,0.60
2022-10-05T01:46:50.252Z,0.77
2022-10-05T01:49:29.141Z,0.60
2022-10-05T01:52:28.518Z,0.70
2022-10-05T01:55:01.554Z,0.57
2022-10-05T01:57:57.269Z,0.70
2022-10-05T02:00:24.304Z,0.90
2022-10-05T02:03:07.572Z,0.40
2022-10-05T02:06:01.587Z,0.43
2022-10-05T02:08:36.457Z,0.60
2022-10-05T02:11:08.972Z,0.80
2022-10-05T02:13:49.560Z,0.60
2022-10-05T02:16:21.161Z,0.80
2022-10-05T02:18:58.383Z,0.63
2022-10-05T02:21:26.792Z,0.88
2022-10-05T02:23:57.493Z,0.70
2022-10-05T02:26:25.744Z,0.47
2022-10-05T02:29:02.590Z,0.60
2022-10-05T02:31:44.568Z,0.55
2022-10-05T02:34:25.144Z,0.57
2022-10-05T02:36:59.235Z,0.60
2022-10-05T02:39:46.878Z,1.00
2022-10-05T02:42:31.133Z,0.57
2022-10-05T02:45:09.866Z,0.70
2022-10-05T02:48:00.779Z,0.60
2022-10-05T02:50:30.571Z,0.68
2022-10-05T02:53:08.824Z,0.57
2022-10-05T02:55:55.910Z,1.35
2022-10-05T02:58:30.223Z,0.70
2022-10-05T03:01:17.338Z,0.60
2022-10-05T03:03:55.885Z,0.63
2022-10-05T03:06:29.044Z,0.68
2022-10-05T03:09:07.885Z,0.68
2022-10-05T03:11:47.642Z,0.60
2022-10-05T03:14:31.460Z,0.70
2022-10-05T03:17:12.469Z,0.65
2022-10-05T03:19:44.809Z,0.60
2022-10-05T03:22:25.467Z,1.05
2022-10-05T03:25:16.626Z,0.75
2022-10-05T03:27:55.659Z,0.80
2022-10-05T03:30:25.748Z,0.93
2022-10-05T03:33:03.094Z,0.85
2022-10-05T03:36:01.185Z,0.77
2022-10-05T03:38:49.452Z,0.90
2022-10-05T03:41:22.288Z,0.88
2022-10-05T03:44:13.588Z,0.80
2022-10-05T03:46:58.212Z,1.10
2022-10-05T03:49:44.612Z,0.90
2022-10-05T03:52:30.286Z,0.70
2022-10-05T03:55:03.833Z,0.50
2022-10-05T03:57:36.317Z,0.50
2022-10-05T04:00:32.849Z,0.75
2022-10-05T04:03:07.734Z,0.50
2022-10-05T04:05:44.034Z,0.98
2022-10-05T04:08:21.986Z,0.85
2022-10-05T04:10:52.878Z,0.63
2022-10-05T04:13:29.147Z,0.93
2022-10-05T04:16:14.833Z,0.70
2022-10-05T04:19:39.973Z,1.23
2022-10-05T04:22:25.454Z,1.00
2022-10-05T04:25:20.227Z,0.80
2022-10-05T04:28:09.828Z,1.70
2022-10-05T04:30:40.897Z,0.90
2022-10-05T04:33:12.788Z,0.82
2022-10-05T04:35:56.362Z,0.85
2022-10-05T04:38:52.608Z,1.08
2022-10-05T04:41:31.440Z,1.00
2022-10-05T04:44:19.292Z,1.08
2022-10-05T04:47:26.331Z,1.33
2022-10-05T04:50:14.738Z,1.27
2022-10-05T04:52:59.898Z,2.03
2022-10-05T04:55:45.562Z,2.42
2022-10-05T04:58:30.401Z,2.08
2022-10-05T05:01:08.950Z,2.08
2022-10-05T05:04:13.946Z,2.15
2022-10-05T05:06:49.100Z,1.20
2022-10-05T05:09:43.019Z,1.13
2022-10-05T05:12:36.232Z,1.73
2022-10-05T05:15:39.430Z,1.00
2022-10-05T05:18:21.375Z,1.40
2022-10-05T05:20:58.458Z,0.77
2022-10-05T05:23:40.822Z,1.52
2022-10-05T05:26:30.561Z,0.88
2022-10-05T05:29:23.650Z,0.80
2022-10-05T05:32:13.073Z,1.13
2022-10-05T05:35:21.528Z,1.08
2022-10-05T05:38:03.325Z,1.17
2022-10-05T05:40:52.964Z,1.10
2022-10-05T05:43:24.697Z,0.80
2022-10-05T05:46:13.578Z,1.20
2022-10-05T05:48:43.141Z,1.23
2022-10-05T05:51:12.943Z,1.35
2022-10-05T05:53:50.075Z,2.35
2022-10-05T05:56:40.545Z,1.27
2022-10-05T05:59:46.932Z,1.55
2022-10-05T06:02:19.067Z,1.00
2022-10-05T06:04:52.424Z,0.98
2022-10-05T06:07:30.232Z,1.20
2022-10-05T06:10:23.173Z,0.93
2022-10-05T06:12:52.532Z,0.98
2022-10-05T06:15:37.954Z,0.85
2022-10-05T06:18:14.147Z,0.77
2022-10-05T06:20:54.908Z,0.77
2022-10-05T06:23:33.146Z,0.80
2022-10-05T06:26:21.724Z,1.15
2022-10-05T06:28:56.228Z,1.27
2022-10-05T06:32:18.480Z,1.35
2022-10-05T06:34:54.388Z,2.28
2022-10-05T06:37:35.305Z,1.42
2022-10-05T06:40:35.137Z,2.30
2022-10-05T06:43:41.188Z,2.85
2022-10-05T06:46:26.085Z,2.83
2022-10-05T06:48:55.851Z,1.80
2022-10-05T06:51:37.942Z,1.48
2022-10-05T06:54:42.859Z,2.85
2022-10-05T06:57:12.455Z,1.90
2022-10-05T06:59:57.496Z,1.10
2022-10-05T07:02:45.190Z,3.90
2022-10-05T07:05:27.349Z,3.17
2022-10-05T07:07:58.608Z,2.78
2022-10-05T07:10:32.997Z,2.13
2022-10-05T07:13:27.999Z,2.22
2022-10-05T07:16:09.977Z,1.75
2022-10-05T07:18:49.211Z,2.60
2022-10-05T07:21:28.062Z,2.80
2022-10-05T07:23:57.759Z,2.70
2022-10-05T07:26:36.827Z,2.03
2022-10-05T07:29:06.621Z,1.85
2022-10-05T07:31:54.787Z,2.30
2022-10-05T07:35:34.657Z,3.30
2022-10-05T07:38:12.094Z,2.47
2022-10-05T07:40:49.372Z,1.55
2022-10-05T07:43:57.847Z,1.20
2022-10-05T07:46:49.044Z,1.40
2022-10-05T07:49:31.325Z,2.13
2022-10-05T07:52:06.929Z,2.92
2022-10-05T07:54:52.324Z,2.05
2022-10-05T07:57:44.187Z,2.20
2022-10-05T08:00:22.353Z,2.70
2022-10-05T08:03:06.446Z,2.33
2022-10-05T08:05:38.264Z,2.47
2022-10-05T08:08:18.199Z,2.35
2022-10-05T08:10:55.203Z,3.42
2022-10-05T08:13:39.413Z,2.95
2022-10-05T08:16:14.689Z,3.08
2022-10-05T08:18:48.602Z,2.47
2022-10-05T08:21:19.605Z,1.90
2022-10-05T08:27:59.588Z,1.92
2022-10-05T08:30:26.514Z,1.67
2022-10-05T08:33:05.621Z,1.10
2022-10-05T08:35:46.044Z,1.33
2022-10-05T08:38:29.478Z,1.20
2022-10-05T08:41:35.053Z,0.82
2022-10-05T08:44:39.328Z,1.63
2022-10-05T08:47:28.011Z,0.82
2022-10-05T08:50:08.258Z,0.70
2022-10-05T08:53:12.380Z,1.08
2022-10-05T08:56:03.068Z,0.85
2022-10-05T08:58:55.928Z,2.00
2022-10-05T09:02:02.212Z,2.65
2022-10-05T09:04:48.066Z,3.35
2022-10-05T09:07:38.901Z,2.95
2022-10-05T09:10:27.700Z,2.55
2022-10-05T09:13:06.744Z,2.75
2022-10-05T09:15:52.463Z,4.80
2022-10-05T09:18:40.514Z,2.78
2022-10-05T09:21:17.760Z,2.17
2022-10-05T09:23:49.093Z,2.20
2022-10-05T09:26:40.806Z,2.50
2022-10-05T09:29:32.348Z,2.72
2022-10-05T09:32:29.654Z,3.03
2022-10-05T09:35:50.426Z,3.05
2022-10-05T09:38:42.034Z,3.20
2022-10-05T09:41:17.507Z,4.53
2022-10-05T09:43:44.359Z,3.00
2022-10-05T09:46:36.227Z,2.60
2022-10-05T09:49:39.148Z,3.08
2022-10-05T09:52:18.762Z,2.90
2022-10-05T09:55:10.668Z,3.10
2022-10-05T09:57:59.386Z,3.05
2022-10-05T10:00:58.816Z,2.33
2022-10-05T10:04:01.815Z,2.70
2022-10-05T10:07:07.801Z,1.92
2022-10-05T10:09:56.253Z,2.13
2022-10-05T10:12:54.117Z,2.00
2022-10-05T10:15:38.560Z,1.80
2022-10-05T10:18:17.669Z,2.08
2022-10-05T10:20:47.191Z,2.17
2022-10-05T10:23:38.212Z,2.13
2022-10-05T10:26:32.855Z,2.10
2022-10-05T10:29:21.138Z,1.58
2022-10-05T10:32:03.993Z,2.90
2022-10-05T10:34:53.929Z,1.60
2022-10-05T10:37:59.103Z,1.92
2022-10-05T10:40:54.165Z,3.58
2022-10-05T10:43:44.198Z,1.98
2022-10-05T10:46:33.086Z,2.45
2022-10-05T10:49:20.319Z,3.67
2022-10-05T10:52:24.766Z,2.15
2022-10-05T10:55:06.656Z,1.98
2022-10-05T10:57:48.457Z,1.95
2022-10-05T11:00:37.866Z,1.67
2022-10-05T11:03:26.357Z,2.65
2022-10-05T11:06:09.725Z,1.58
2022-10-05T11:08:55.216Z,1.42
2022-10-05T11:11:53.351Z,2.38
2022-10-05T11:14:35.245Z,2.00
2022-10-05T11:17:36.413Z,3.00
2022-10-05T11:20:34.411Z,2.30
2022-10-05T11:23:26.693Z,1.73
2022-10-05T11:26:04.366Z,1.73
2022-10-05T11:28:43.388Z,1.88
2022-10-05T11:31:35.616Z,1.88
2022-10-05T11:34:26.445Z,1.70
2022-10-05T11:36:59.384Z,1.98
2022-10-05T11:39:39.345Z,1.75
2022-10-05T11:42:31.053Z,2.00
2022-10-05T11:45:25.658Z,2.00
2022-10-05T11:48:29.406Z,2.78
2022-10-05T11:51:14.713Z,5.80
2022-10-05T11:53:57.556Z,5.50
2022-10-05T11:56:31.316Z,2.70
2022-10-05T11:59:05.941Z,2.55
2022-10-05T12:01:49.403Z,3.10
2022-10-05T12:04:34.953Z,2.53
2022-10-05T12:07:20.560Z,2.70
2022-10-05T12:10:14.403Z,3.63
2022-10-05T12:13:08.777Z,2.20
2022-10-05T12:16:01.483Z,2.53
2022-10-05T12:18:31.417Z,2.50
2022-10-05T12:21:27.678Z,3.20
2022-10-05T12:24:27.146Z,2.35
2022-10-05T12:27:10.308Z,2.50
2022-10-05T12:29:49.782Z,4.30
2022-10-05T12:32:22.526Z,2.75
2022-10-05T12:35:04.378Z,3.08
2022-10-05T12:37:48.127Z,2.80
2022-10-05T12:40:34.068Z,2.00
2022-10-05T12:43:29.446Z,3.03
2022-10-05T12:46:20.287Z,3.28
2022-10-05T12:49:08.778Z,1.60
2022-10-05T12:51:51.012Z,2.17
2022-10-05T12:54:23.855Z,1.60
2022-10-05T12:56:59.366Z,1.85
2022-10-05T12:59:49.255Z,1.85
2022-10-05T13:02:28.062Z,2.45
2022-10-05T13:05:10.895Z,2.15
2022-10-05T13:07:46.478Z,2.15
2022-10-05T13:10:42.348Z,2.95
2022-10-05T13:13:33.685Z,3.05
2022-10-05T13:16:55.045Z,1.90
2022-10-05T13:19:44.613Z,2.45
2022-10-05T13:22:48.267Z,2.00
2022-10-05T13:25:26.702Z,2.13
2022-10-05T13:28:02.353Z,1.80
2022-10-05T13:30:29.759Z,1.58
2022-10-05T13:33:07.935Z,2.05
2022-10-05T13:36:01.535Z,1.95
2022-10-05T13:38:39.742Z,1.90
2022-10-05T13:41:06.712Z,1.27
2022-10-05T13:43:39.519Z,1.83
2022-10-05T13:46:36.996Z,2.28
2022-10-05T13:49:29.495Z,1.95
2022-10-05T13:52:25.791Z,1.98
2022-10-05T13:55:07.654Z,1.67
2022-10-05T13:58:02.571Z,2.15
2022-10-05T14:00:30.567Z,2.33
2022-10-05T14:03:00.746Z,1.23
2022-10-05T14:05:31.629Z,1.60
2022-10-05T14:08:16.573Z,2.08
2022-10-05T14:10:46.051Z,1.40
2022-10-05T14:13:13.469Z,1.60
2022-10-05T14:15:42.359Z,1.23
2022-10-05T14:18:27.738Z,1.15
2022-10-05T14:21:24.706Z,1.83
2022-10-05T14:23:52.848Z,1.58
2022-10-05T14:26:25.560Z,1.42
2022-10-05T14:29:16.739Z,1.10
2022-10-05T14:32:01.780Z,1.55
2022-10-05T14:34:39.323Z,1.52
2022-10-05T14:37:20.107Z,1.30
2022-10-05T14:39:50.078Z,0.93
2022-10-05T14:42:19.599Z,1.23
2022-10-05T14:45:00.806Z,1.35
2022-10-05T14:47:31.531Z,1.40
2022-10-05T14:50:16.040Z,1.13
2022-10-05T14:53:18.185Z,1.30
2022-10-05T14:56:23.097Z,1.30
2022-10-05T14:59:04.164Z,1.48
2022-10-05T15:01:35.250Z,1.25
2022-10-05T15:04:30.562Z,1.10
2022-10-05T15:07:25.098Z,1.20
2022-10-05T15:10:00.561Z,1.35
2022-10-05T15:12:37.647Z,1.92
2022-10-05T15:15:37.969Z,1.30
2022-10-05T15:18:32.229Z,1.20
2022-10-05T15:21:15.437Z,1.20
2022-10-05T15:23:55.271Z,1.20
2022-10-05T15:26:33.175Z,1.30
2022-10-05T15:29:36.171Z,3.05
2022-10-05T15:32:03.237Z,1.20
2022-10-05T15:34:44.365Z,2.15
2022-10-05T15:37:33.103Z,1.00
2022-10-05T15:40:06.723Z,1.42
2022-10-05T15:42:38.638Z,0.90
2022-10-05T15:45:21.801Z,1.63
2022-10-05T15:48:24.540Z,1.20
2022-10-05T15:51:02.938Z,1.50
2022-10-05T15:54:37.944Z,0.80
2022-10-05T15:57:23.581Z,1.83
2022-10-05T16:00:04.224Z,1.17
2022-10-05T16:02:59.546Z,0.88
2022-10-05T16:05:56.490Z,1.15
2022-10-05T16:09:11.813Z,0.98
2022-10-05T16:11:49.890Z,2.50
2022-10-05T16:15:28.522Z,0.88
2022-10-05T16:18:18.313Z,0.70
2022-10-05T16:21:04.074Z,0.98
2022-10-05T16:23:44.493Z,0.82
2022-10-05T16:26:33.709Z,0.65
2022-10-05T16:29:44.010Z,0.73
2022-10-05T16:32:27.312Z,0.70
2022-10-05T16:35:21.465Z,0.60
2022-10-05T16:37:54.302Z,0.60
2022-10-05T16:41:02.277Z,1.70
2022-10-05T16:43:38.291Z,0.70
2022-10-05T16:46:22.267Z,0.70
2022-10-05T16:49:07.717Z,0.60
2022-10-05T16:51:40.291Z,0.63
2022-10-05T16:54:09.877Z,0.63
2022-10-05T16:57:17.685Z,0.75
2022-10-05T17:00:02.184Z,0.80
2022-10-05T17:02:47.014Z,0.70
2022-10-05T17:05:32.028Z,0.60
2022-10-05T17:08:30.273Z,0.75
2022-10-05T17:13:56.112Z,0.50
2022-10-05T17:16:34.471Z,0.55
2022-10-05T17:19:19.237Z,1.90
2022-10-05T17:22:03.172Z,0.90
2022-10-05T17:24:59.847Z,0.82
2022-10-05T17:27:32.861Z,2.55
2022-10-05T17:30:18.330Z,1.08
2022-10-05T17:32:57.487Z,0.88
2022-10-05T17:35:52.256Z,0.90
2022-10-05T17:38:22.672Z,0.80
2022-10-05T17:41:14.718Z,1.33
2022-10-05T17:44:02.012Z,0.93
2022-10-05T17:47:31.870Z,0.80
2022-10-05T17:50:18.585Z,1.17
2022-10-05T17:53:23.841Z,0.70
2022-10-05T17:56:04.673Z,1.40
2022-10-05T17:58:31.443Z,0.98
2022-10-05T18:00:58.320Z,0.95
2022-10-05T18:03:38.196Z,1.10
2022-10-05T18:06:24.530Z,1.13
2022-10-05T18:09:14.039Z,1.38
2022-10-05T18:11:42.622Z,0.80
2022-10-05T18:14:24.636Z,0.80
2022-10-05T18:17:14.098Z,0.88
2022-10-05T18:19:41.715Z,1.00
2022-10-05T18:22:27.988Z,0.80
2022-10-05T18:25:03.917Z,0.88
2022-10-05T18:27:42.720Z,0.73
2022-10-05T18:30:22.397Z,1.02
2022-10-05T18:33:08.210Z,1.30
2022-10-05T18:35:49.698Z,1.13
2022-10-05T18:38:29.358Z,0.80
2022-10-05T18:41:05.669Z,0.73
2022-10-05T18:43:53.290Z,1.15
2022-10-05T18:46:26.195Z,1.90
2022-10-05T18:48:59.234Z,1.23
2022-10-05T18:52:06.471Z,1.30
2022-10-05T18:55:12.855Z,0.70
2022-10-05T18:57:59.719Z,1.70
2022-10-05T19:00:43.428Z,1.02
2022-10-05T19:03:42.403Z,2.20
2022-10-05T19:06:24.731Z,1.10
2022-10-05T19:08:54.464Z,0.70
2022-10-05T19:11:30.267Z,1.60
2022-10-05T19:14:18.731Z,2.92
2022-10-05T19:17:00.571Z,1.52
2022-10-05T19:19:34.660Z,1.10
2022-10-05T19:22:17.206Z,2.28
2022-10-05T19:24:59.290Z,1.10
2022-10-05T19:27:41.144Z,0.65
2022-10-05T19:30:15.397Z,0.68
2022-10-05T19:32:51.789Z,0.70
2022-10-05T19:35:49.844Z,0.80
2022-10-05T19:38:52.166Z,0.70
2022-10-05T19:41:31.139Z,0.85
2022-10-05T19:44:16.779Z,0.75
2022-10-05T19:47:24.065Z,0.68
2022-10-05T19:49:56.711Z,1.02
2022-10-05T19:52:36.506Z,0.80
2022-10-05T19:55:24.122Z,0.60
2022-10-05T19:58:03.498Z,1.35
2022-10-05T20:00:34.586Z,0.70
2022-10-05T20:03:14.529Z,1.00
2022-10-05T20:05:41.681Z,1.05
2022-10-05T20:08:15.493Z,0.82
2022-10-05T20:10:42.452Z,1.10
2022-10-05T20:13:23.129Z,0.80
2022-10-05T20:16:33.808Z,1.70
2022-10-05T20:19:19.933Z,1.17
2022-10-05T20:21:52.361Z,0.65
2022-10-05T20:24:21.615Z,0.50
2022-10-05T20:27:06.938Z,0.60
2022-10-05T20:29:38.278Z,0.73
2022-10-05T20:32:17.884Z,0.80
2022-10-05T20:34:46.973Z,1.00
2022-10-05T20:37:16.223Z,0.73
2022-10-05T20:39:44.010Z,0.93
2022-10-05T20:42:11.616Z,0.80
2022-10-05T20:44:38.611Z,1.10
2022-10-05T20:47:09.824Z,1.00
2022-10-05T20:49:38.589Z,0.70
2022-10-05T20:52:10.120Z,0.77
2022-10-05T20:54:38.832Z,1.00
2022-10-05T20:57:06.713Z,0.70
2022-10-05T20:59:34.949Z,0.65
2022-10-05T21:02:02.484Z,0.70
2022-10-05T21:04:40.229Z,1.92
2022-10-05T21:07:08.336Z,1.75
2022-10-05T21:09:38.006Z,1.42
2022-10-05T21:12:04.917Z,1.65
2022-10-05T21:14:34.496Z,1.98
2022-10-05T21:17:02.186Z,1.10
2022-10-05T21:19:29.624Z,1.23
2022-10-05T21:21:59.605Z,1.30
2022-10-05T21:24:26.473Z,1.05
2022-10-05T21:26:57.680Z,1.63
2022-10-05T21:29:24.518Z,1.08
2022-10-05T21:31:51.593Z,1.02
2022-10-05T21:34:18.612Z,1.13
2022-10-05T21:36:45.363Z,1.65
2022-10-05T21:39:12.180Z,2.70
2022-10-05T21:41:38.980Z,1.45
2022-10-05T21:44:06.894Z,3.33
2022-10-05T21:46:35.970Z,1.95
2022-10-05T21:49:03.009Z,2.55
2022-10-05T21:51:29.930Z,1.27
2022-10-05T21:54:02.992Z,1.75
2022-10-05T21:56:34.840Z,3.40
2022-10-05T21:59:04.623Z,1.35
2022-10-05T22:01:31.498Z,2.20
2022-10-05T22:03:58.386Z,1.98
2022-10-05T22:06:27.106Z,1.60
2022-10-05T22:08:53.925Z,2.72
2022-10-05T22:11:20.752Z,1.45
2022-10-05T22:13:50.516Z,0.75
2022-10-05T22:16:20.094Z,0.60
2022-10-05T22:18:47.646Z,0.85
2022-10-05T22:21:16.121Z,0.55
2022-10-05T22:23:45.313Z,0.88
2022-10-05T22:26:16.620Z,0.52
2022-10-05T22:28:44.311Z,0.40
2022-10-05T22:31:12.857Z,0.50
2022-10-05T22:33:40.873Z,0.30
2022-10-05T22:36:09.148Z,0.68
2022-10-05T22:38:36.021Z,0.30
2022-10-05T22:41:03.185Z,0.77
2022-10-05T22:43:30.035Z,0.40
2022-10-05T22:45:57.015Z,0.38
2022-10-05T22:48:23.928Z,0.73
2022-10-05T22:50:50.744Z,0.60
2022-10-05T22:53:17.708Z,0.43
2022-10-05T22:55:44.560Z,0.50
2022-10-05T22:58:11.402Z,0.77
2022-10-05T23:00:57.587Z,0.30
2022-10-05T23:03:25.170Z,0.50
2022-10-05T23:06:05.213Z,0.30
2022-10-05T23:08:33.656Z,0.90
2022-10-05T23:11:05.594Z,1.88
2022-10-05T23:13:33.571Z,0.50
2022-10-05T23:16:15.199Z,0.50
2022-10-05T23:18:42.901Z,0.82
2022-10-05T23:21:11.098Z,0.45
2022-10-05T23:23:39.513Z,0.38
2022-10-05T23:26:07.801Z,1.00
2022-10-05T23:28:34.904Z,0.57
2022-10-05T23:31:03.809Z,0.50
2022-10-05T23:33:31.141Z,0.40
2022-10-05T23:36:09.829Z,0.80
2022-10-05T23:38:36.693Z,0.50
2022-10-05T23:41:04.346Z,0.60
2022-10-05T23:43:33.362Z,0.63
2022-10-05T23:46:00.783Z,0.40
2022-10-05T23:48:28.139Z,0.60
2022-10-05T23:50:55.748Z,0.70
2022-10-05T23:53:23.141Z,0.30
2022-10-05T23:55:51.577Z,0.50
2022-10-05T23:58:18.539Z,0.47
